sensor_id;sensor_type;location;lat;lon;timestamp;pressure;altitude;pressure_sealevel;temperature;humidity
37710;BME280;60223;34.854;-92.408;2023-10-19T00:00:22;100414.57;;;26.71;30.13
37710;BME280;60223;34.854;-92.408;2023-10-19T00:02:56;100415.28;;;26.24;30.18
37710;BME280;60223;34.854;-92.408;2023-10-19T00:05:14;100415.63;;;26.70;30.21
37710;BME280;60223;34.854;-92.408;2023-10-19T00:07:40;100418.96;;;26.25;30.18
37710;BME280;60223;34.854;-92.408;2023-10-19T00:10:06;100422.04;;;26.22;30.21
37710;BME280;60223;34.854;-92.408;2023-10-19T00:12:31;100426.19;;;26.47;30.22
37710;BME280;60223;34.854;-92.408;2023-10-19T00:14:56;100432.48;;;26.40;30.34
37710;BME280;60223;34.854;-92.408;2023-10-19T00:17:22;100437.27;;;26.21;30.26
37710;BME280;60223;34.854;-92.408;2023-10-19T00:19:48;100436.50;;;26.67;30.26
37710;BME280;60223;34.854;-92.408;2023-10-19T00:22:13;100436.02;;;26.46;30.26
37710;BME280;60223;34.854;-92.408;2023-10-19T00:24:39;100438.51;;;26.75;30.23
37710;BME280;60223;34.854;-92.408;2023-10-19T00:27:05;100435.98;;;26.26;30.27
37710;BME280;60223;34.854;-92.408;2023-10-19T00:29:31;100438.98;;;26.50;30.32
37710;BME280;60223;34.854;-92.408;2023-10-19T00:31:53;100443.07;;;26.21;30.40
37710;BME280;60223;34.854;-92.408;2023-10-19T00:34:22;100442.32;;;26.45;30.45
37710;BME280;60223;34.854;-92.408;2023-10-19T00:37:10;100445.95;;;26.24;30.44
37710;BME280;60223;34.854;-92.408;2023-10-19T00:39:13;100444.52;;;26.76;30.39
37710;BME280;60223;34.854;-92.408;2023-10-19T00:41:38;100444.51;;;26.70;30.42
37710;BME280;60223;34.854;-92.408;2023-10-19T00:44:03;100442.30;;;26.72;30.47
37710;BME280;60223;34.854;-92.408;2023-10-19T00:46:31;100441.52;;;26.46;30.49
37710;BME280;60223;34.854;-92.408;2023-10-19T00:48:56;100443.23;;;26.76;30.42
37710;BME280;60223;34.854;-92.408;2023-10-19T00:51:23;100447.44;;;26.76;30.42
37710;BME280;60223;34.854;-92.408;2023-10-19T00:53:47;100451.32;;;26.25;30.49
37710;BME280;60223;34.854;-92.408;2023-10-19T00:56:13;100455.87;;;26.67;30.55
37710;BME280;60223;34.854;-92.408;2023-10-19T00:58:38;100461.29;;;26.42;30.58
37710;BME280;60223;34.854;-92.408;2023-10-19T01:01:04;100466.95;;;26.65;30.56
37710;BME280;60223;34.854;-92.408;2023-10-19T01:03:30;100468.39;;;26.61;30.58
37710;BME280;60223;34.854;-92.408;2023-10-19T01:05:55;100477.82;;;26.33;30.61
37710;BME280;60223;34.854;-92.408;2023-10-19T01:08:21;100481.54;;;26.08;30.60
37710;BME280;60223;34.854;-92.408;2023-10-19T01:10:47;100483.85;;;26.29;30.60
37710;BME280;60223;34.854;-92.408;2023-10-19T01:13:12;100483.61;;;26.53;30.59
37710;BME280;60223;34.854;-92.408;2023-10-19T01:15:39;100481.42;;;26.26;30.61
37710;BME280;60223;34.854;-92.408;2023-10-19T01:18:04;100479.36;;;26.23;30.65
37710;BME280;60223;34.854;-92.408;2023-10-19T01:20:31;100481.49;;;26.45;30.66
37710;BME280;60223;34.854;-92.408;2023-10-19T01:22:56;100480.14;;;26.17;30.68
37710;BME280;60223;34.854;-92.408;2023-10-19T01:25:22;100480.54;;;26.19;30.67
37710;BME280;60223;34.854;-92.408;2023-10-19T01:27:43;100480.95;;;26.11;30.72
37710;BME280;60223;34.854;-92.408;2023-10-19T01:30:13;100479.75;;;26.09;30.73
37710;BME280;60223;34.854;-92.408;2023-10-19T01:32:37;100482.42;;;26.35;30.70
37710;BME280;60223;34.854;-92.408;2023-10-19T01:35:02;100481.76;;;25.92;30.65
37710;BME280;60223;34.854;-92.408;2023-10-19T01:37:27;100488.16;;;25.95;30.60
37710;BME280;60223;34.854;-92.408;2023-10-19T01:39:54;100487.41;;;26.00;30.59
37710;BME280;60223;34.854;-92.408;2023-10-19T01:42:21;100485.22;;;26.39;30.44
37710;BME280;60223;34.854;-92.408;2023-10-19T01:44:46;100489.23;;;26.45;30.66
37710;BME280;60223;34.854;-92.408;2023-10-19T01:47:11;100490.25;;;26.40;30.68
37710;BME280;60223;34.854;-92.408;2023-10-19T01:49:37;100487.37;;;26.14;30.72
37710;BME280;60223;34.854;-92.408;2023-10-19T01:52:03;100486.41;;;26.07;30.81
37710;BME280;60223;34.854;-92.408;2023-10-19T01:54:28;100486.83;;;26.08;30.83
37710;BME280;60223;34.854;-92.408;2023-10-19T01:56:55;100493.37;;;26.08;30.82
37710;BME280;60223;34.854;-92.408;2023-10-19T01:59:20;100495.10;;;26.37;30.81
37710;BME280;60223;34.854;-92.408;2023-10-19T02:01:46;100499.57;;;26.36;30.84
37710;BME280;60223;34.854;-92.408;2023-10-19T02:04:10;100498.39;;;26.13;30.86
37710;BME280;60223;34.854;-92.408;2023-10-19T02:06:37;100500.30;;;26.41;30.86
37710;BME280;60223;34.854;-92.408;2023-10-19T02:09:03;100504.40;;;26.13;30.90
37710;BME280;60223;34.854;-92.408;2023-10-19T02:11:29;100506.93;;;26.14;30.93
37710;BME280;60223;34.854;-92.408;2023-10-19T02:13:57;100507.79;;;26.12;30.95
37710;BME280;60223;34.854;-92.408;2023-10-19T02:16:20;100509.09;;;26.32;30.83
37710;BME280;60223;34.854;-92.408;2023-10-19T02:18:42;100508.48;;;26.07;31.11
37710;BME280;60223;34.854;-92.408;2023-10-19T02:21:10;100512.41;;;26.38;30.84
37710;BME280;60223;34.854;-92.408;2023-10-19T02:23:34;100511.38;;;26.09;30.90
37710;BME280;60223;34.854;-92.408;2023-10-19T02:26:00;100509.65;;;26.47;31.01
37710;BME280;60223;34.854;-92.408;2023-10-19T02:28:28;100505.98;;;25.89;31.13
37710;BME280;60223;34.854;-92.408;2023-10-19T02:30:49;100507.09;;;25.87;31.15
37710;BME280;60223;34.854;-92.408;2023-10-19T02:33:22;100507.62;;;25.93;31.12
37710;BME280;60223;34.854;-92.408;2023-10-19T02:35:44;100512.68;;;25.90;31.16
37710;BME280;60223;34.854;-92.408;2023-10-19T02:38:10;100517.62;;;26.12;31.20
37710;BME280;60223;34.854;-92.408;2023-10-19T02:40:35;100518.61;;;26.41;31.14
37710;BME280;60223;34.854;-92.408;2023-10-19T02:52:43;100533.08;;;26.34;31.32
37710;BME280;60223;34.854;-92.408;2023-10-19T02:55:10;100533.30;;;26.37;31.30
37710;BME280;60223;34.854;-92.408;2023-10-19T02:57:35;100538.56;;;26.45;31.24
37710;BME280;60223;34.854;-92.408;2023-10-19T03:00:00;100541.18;;;25.97;31.24
37710;BME280;60223;34.854;-92.408;2023-10-19T03:04:51;100544.38;;;26.14;31.34
37710;BME280;60223;34.854;-92.408;2023-10-19T03:07:16;100547.85;;;26.25;31.24
37710;BME280;60223;34.854;-92.408;2023-10-19T03:09:49;100549.00;;;26.57;31.17
37710;BME280;60223;34.854;-92.408;2023-10-19T03:12:06;100547.52;;;26.24;31.27
37710;BME280;60223;34.854;-92.408;2023-10-19T03:14:41;100544.73;;;25.95;31.30
37710;BME280;60223;34.854;-92.408;2023-10-19T03:17:01;100536.53;;;26.22;31.27
37710;BME280;60223;34.854;-92.408;2023-10-19T03:19:23;100531.62;;;26.42;31.33
37710;BME280;60223;34.854;-92.408;2023-10-19T03:21:52;100528.58;;;26.43;31.31
37710;BME280;60223;34.854;-92.408;2023-10-19T03:24:16;100525.90;;;26.05;31.45
37710;BME280;60223;34.854;-92.408;2023-10-19T03:26:43;100527.89;;;26.63;31.13
37710;BME280;60223;34.854;-92.408;2023-10-19T03:29:07;100526.68;;;26.68;31.04
37710;BME280;60223;34.854;-92.408;2023-10-19T03:31:51;100521.51;;;26.50;30.97
37710;BME280;60223;34.854;-92.408;2023-10-19T03:34:00;100516.39;;;26.25;30.96
37710;BME280;60223;34.854;-92.408;2023-10-19T03:36:33;100510.65;;;26.78;30.86
37710;BME280;60223;34.854;-92.408;2023-10-19T03:38:49;100513.28;;;26.28;30.88
37710;BME280;60223;34.854;-92.408;2023-10-19T03:41:21;100508.88;;;26.33;30.81
37710;BME280;60223;34.854;-92.408;2023-10-19T03:43:43;100507.62;;;26.34;30.76
37710;BME280;60223;34.854;-92.408;2023-10-19T03:46:08;100508.04;;;26.89;30.66
37710;BME280;60223;34.854;-92.408;2023-10-19T03:48:33;100507.56;;;26.33;30.68
37710;BME280;60223;34.854;-92.408;2023-10-19T03:51:02;100509.19;;;26.48;30.75
37710;BME280;60223;34.854;-92.408;2023-10-19T03:55:57;100510.19;;;26.54;30.65
37710;BME280;60223;34.854;-92.408;2023-10-19T03:58:14;100510.14;;;26.81;30.58
37710;BME280;60223;34.854;-92.408;2023-10-19T04:00:47;100508.37;;;26.62;30.52
37710;BME280;60223;34.854;-92.408;2023-10-19T04:03:11;100508.68;;;26.64;30.49
37710;BME280;60223;34.854;-92.408;2023-10-19T04:05:35;100506.58;;;26.59;30.50
37710;BME280;60223;34.854;-92.408;2023-10-19T04:07:57;100504.65;;;26.61;30.44
37710;BME280;60223;34.854;-92.408;2023-10-19T04:10:20;100505.24;;;26.65;30.40
37710;BME280;60223;34.854;-92.408;2023-10-19T04:12:48;100512.28;;;26.59;30.41
37710;BME280;60223;34.854;-92.408;2023-10-19T04:15:14;100514.56;;;26.56;30.41
37710;BME280;60223;34.854;-92.408;2023-10-19T04:17:40;100518.99;;;26.75;30.43
37710;BME280;60223;34.854;-92.408;2023-10-19T04:20:06;100517.75;;;26.51;30.42
37710;BME280;60223;34.854;-92.408;2023-10-19T04:22:33;100517.16;;;26.68;30.49
37710;BME280;60223;34.854;-92.408;2023-10-19T04:25:20;100519.66;;;26.80;30.31
37710;BME280;60223;34.854;-92.408;2023-10-19T04:27:23;100522.07;;;26.59;30.24
37710;BME280;60223;34.854;-92.408;2023-10-19T04:29:48;100521.75;;;26.53;30.28
37710;BME280;60223;34.854;-92.408;2023-10-19T04:32:13;100521.70;;;26.77;30.27
37710;BME280;60223;34.854;-92.408;2023-10-19T04:34:45;100520.32;;;26.82;30.20
37710;BME280;60223;34.854;-92.408;2023-10-19T04:37:05;100523.45;;;26.74;30.26
37710;BME280;60223;34.854;-92.408;2023-10-19T04:39:29;100520.82;;;26.47;30.24
37710;BME280;60223;34.854;-92.408;2023-10-19T04:41:58;100520.87;;;26.30;30.16
37710;BME280;60223;34.854;-92.408;2023-10-19T04:44:19;100514.86;;;26.63;30.04
37710;BME280;60223;34.854;-92.408;2023-10-19T04:46:48;100510.40;;;26.70;30.17
37710;BME280;60223;34.854;-92.408;2023-10-19T04:49:10;100508.80;;;26.54;30.06
37710;BME280;60223;34.854;-92.408;2023-10-19T04:51:40;100511.81;;;26.76;30.06
37710;BME280;60223;34.854;-92.408;2023-10-19T04:54:04;100515.37;;;26.81;29.99
37710;BME280;60223;34.854;-92.408;2023-10-19T04:56:29;100515.95;;;26.42;30.12
37710;BME280;60223;34.854;-92.408;2023-10-19T04:58:56;100515.67;;;26.45;30.07
37710;BME280;60223;34.854;-92.408;2023-10-19T05:01:22;100515.45;;;26.38;30.11
37710;BME280;60223;34.854;-92.408;2023-10-19T05:03:48;100513.80;;;26.63;30.09
37710;BME280;60223;34.854;-92.408;2023-10-19T05:06:12;100514.54;;;26.40;30.04
37710;BME280;60223;34.854;-92.408;2023-10-19T05:08:39;100516.89;;;26.37;30.04
37710;BME280;60223;34.854;-92.408;2023-10-19T05:11:13;100514.31;;;26.61;30.01
37710;BME280;60223;34.854;-92.408;2023-10-19T05:13:30;100513.79;;;26.45;29.92
37710;BME280;60223;34.854;-92.408;2023-10-19T05:15:58;100511.19;;;26.68;29.89
37710;BME280;60223;34.854;-92.408;2023-10-19T05:18:19;100510.17;;;26.73;29.83
37710;BME280;60223;34.854;-92.408;2023-10-19T05:20:48;100511.84;;;26.64;29.88
37710;BME280;60223;34.854;-92.408;2023-10-19T05:23:17;100513.99;;;26.62;29.89
37710;BME280;60223;34.854;-92.408;2023-10-19T05:25:41;100520.37;;;26.47;29.76
37710;BME280;60223;34.854;-92.408;2023-10-19T05:28:02;100522.63;;;26.46;30.01
37710;BME280;60223;34.854;-92.408;2023-10-19T05:30:29;100523.06;;;26.61;29.82
37710;BME280;60223;34.854;-92.408;2023-10-19T05:33:03;100518.44;;;26.60;29.77
37710;BME280;60223;34.854;-92.408;2023-10-19T05:35:19;100518.47;;;26.06;29.84
37710;BME280;60223;34.854;-92.408;2023-10-19T05:37:46;100518.11;;;26.23;29.88
37710;BME280;60223;34.854;-92.408;2023-10-19T05:40:11;100510.74;;;26.13;29.71
37710;BME280;60223;34.854;-92.408;2023-10-19T05:42:35;100509.06;;;26.14;29.93
37710;BME280;60223;34.854;-92.408;2023-10-19T05:45:07;100510.39;;;26.60;29.69
37710;BME280;60223;34.854;-92.408;2023-10-19T05:47:28;100504.86;;;26.25;29.76
37710;BME280;60223;34.854;-92.408;2023-10-19T05:49:56;100503.32;;;26.36;29.65
37710;BME280;60223;34.854;-92.408;2023-10-19T05:52:19;100502.72;;;25.96;29.79
37710;BME280;60223;34.854;-92.408;2023-10-19T05:54:52;100504.63;;;26.57;29.57
37710;BME280;60223;34.854;-92.408;2023-10-19T05:57:10;100501.32;;;26.25;29.68
37710;BME280;60223;34.854;-92.408;2023-10-19T05:59:36;100497.75;;;26.29;29.60
37710;BME280;60223;34.854;-92.408;2023-10-19T06:02:02;100496.07;;;26.63;29.48
37710;BME280;60223;34.854;-92.408;2023-10-19T06:04:28;100492.50;;;26.51;29.58
37710;BME280;60223;34.854;-92.408;2023-10-19T06:06:52;100492.76;;;26.52;29.56
37710;BME280;60223;34.854;-92.408;2023-10-19T06:09:25;100491.35;;;26.37;29.66
37710;BME280;60223;34.854;-92.408;2023-10-19T06:11:44;100494.35;;;26.58;29.45
37710;BME280;60223;34.854;-92.408;2023-10-19T06:14:10;100501.78;;;26.24;29.50
37710;BME280;60223;34.854;-92.408;2023-10-19T06:19:03;100511.68;;;25.86;29.58
37710;BME280;60223;34.854;-92.408;2023-10-19T06:21:25;100519.19;;;26.49;29.40
37710;BME280;60223;34.854;-92.408;2023-10-19T06:24:01;100521.27;;;26.21;29.44
37710;BME280;60223;34.854;-92.408;2023-10-19T06:26:16;100513.76;;;26.34;29.53
37710;BME280;60223;34.854;-92.408;2023-10-19T06:28:42;100508.23;;;26.43;29.42
37710;BME280;60223;34.854;-92.408;2023-10-19T06:31:14;100502.86;;;26.06;29.51
37710;BME280;60223;34.854;-92.408;2023-10-19T06:33:44;100493.55;;;25.82;29.51
37710;BME280;60223;34.854;-92.408;2023-10-19T06:36:00;100480.81;;;26.10;29.42
37710;BME280;60223;34.854;-92.408;2023-10-19T06:38:25;100464.21;;;26.20;29.56
37710;BME280;60223;34.854;-92.408;2023-10-19T06:40:52;100441.42;;;26.00;29.48
37710;BME280;60223;34.854;-92.408;2023-10-19T06:43:22;100443.83;;;26.11;29.34
37710;BME280;60223;34.854;-92.408;2023-10-19T06:45:43;100479.17;;;26.52;29.42
37710;BME280;60223;34.854;-92.408;2023-10-19T06:48:08;100473.77;;;26.26;29.45
37710;BME280;60223;34.854;-92.408;2023-10-19T06:50:34;100477.20;;;26.17;29.48
37710;BME280;60223;34.854;-92.408;2023-10-19T06:53:00;100489.57;;;26.32;29.31
37710;BME280;60223;34.854;-92.408;2023-10-19T06:55:34;100485.00;;;25.82;29.31
37710;BME280;60223;34.854;-92.408;2023-10-19T06:57:52;100470.95;;;26.21;29.37
37710;BME280;60223;34.854;-92.408;2023-10-19T07:02:42;100448.59;;;25.96;29.32
37710;BME280;60223;34.854;-92.408;2023-10-19T07:05:10;100429.01;;;26.19;29.33
37710;BME280;60223;34.854;-92.408;2023-10-19T07:07:34;100422.08;;;26.10;29.38
37710;BME280;60223;34.854;-92.408;2023-10-19T07:09:59;100408.79;;;26.21;29.27
37710;BME280;60223;34.854;-92.408;2023-10-19T07:12:33;100404.93;;;26.02;29.20
37710;BME280;60223;34.854;-92.408;2023-10-19T07:14:52;100427.39;;;26.09;29.37
37710;BME280;60223;34.854;-92.408;2023-10-19T07:17:16;100462.39;;;25.77;29.39
37710;BME280;60223;34.854;-92.408;2023-10-19T07:19:46;100472.58;;;26.12;29.21
37710;BME280;60223;34.854;-92.408;2023-10-19T07:22:05;100471.59;;;26.18;29.11
37710;BME280;60223;34.854;-92.408;2023-10-19T07:24:33;100467.61;;;26.07;29.22
37710;BME280;60223;34.854;-92.408;2023-10-19T07:26:59;100468.48;;;26.13;29.12
37710;BME280;60223;34.854;-92.408;2023-10-19T07:29:25;100469.77;;;26.31;29.17
37710;BME280;60223;34.854;-92.408;2023-10-19T07:31:54;100469.18;;;26.15;29.12
37710;BME280;60223;34.854;-92.408;2023-10-19T07:34:16;100465.10;;;26.03;29.21
37710;BME280;60223;34.854;-92.408;2023-10-19T07:36:42;100462.38;;;26.14;29.10
37710;BME280;60223;34.854;-92.408;2023-10-19T07:39:37;100455.21;;;25.96;29.23
37710;BME280;60223;34.854;-92.408;2023-10-19T07:41:34;100450.79;;;26.43;29.04
37710;BME280;60223;34.854;-92.408;2023-10-19T07:43:58;100450.09;;;25.97;29.17
37710;BME280;60223;34.854;-92.408;2023-10-19T07:46:24;100442.14;;;26.07;29.07
37710;BME280;60223;34.854;-92.408;2023-10-19T07:48:51;100433.74;;;26.13;29.08
37710;BME280;60223;34.854;-92.408;2023-10-19T07:51:15;100433.66;;;25.95;29.20
37710;BME280;60223;34.854;-92.408;2023-10-19T07:53:41;100423.16;;;26.03;29.07
37710;BME280;60223;34.854;-92.408;2023-10-19T07:56:05;100416.39;;;25.87;29.23
37710;BME280;60223;34.854;-92.408;2023-10-19T07:58:41;100416.63;;;25.85;29.20
37710;BME280;60223;34.854;-92.408;2023-10-19T08:00:58;100416.58;;;26.22;29.02
37710;BME280;60223;34.854;-92.408;2023-10-19T08:03:23;100413.44;;;26.19;29.05
37710;BME280;60223;34.854;-92.408;2023-10-19T08:05:49;100412.06;;;26.14;29.02
37710;BME280;60223;34.854;-92.408;2023-10-19T08:08:14;100406.18;;;26.51;28.81
37710;BME280;60223;34.854;-92.408;2023-10-19T08:10:49;100404.74;;;25.65;29.28
37710;BME280;60223;34.854;-92.408;2023-10-19T08:13:06;100396.91;;;25.94;28.97
37710;BME280;60223;34.854;-92.408;2023-10-19T08:15:32;100389.79;;;25.93;29.02
37710;BME280;60223;34.854;-92.408;2023-10-19T08:17:59;100391.80;;;25.91;29.17
37710;BME280;60223;34.854;-92.408;2023-10-19T08:20:21;100388.55;;;25.93;28.94
37710;BME280;60223;34.854;-92.408;2023-10-19T08:22:48;100386.62;;;25.85;28.89
37710;BME280;60223;34.854;-92.408;2023-10-19T08:25:14;100383.23;;;26.07;29.01
37710;BME280;60223;34.854;-92.408;2023-10-19T08:27:40;100383.61;;;26.16;28.88
37710;BME280;60223;34.854;-92.408;2023-10-19T08:30:10;100379.30;;;25.89;28.83
37710;BME280;60223;34.854;-92.408;2023-10-19T08:34:55;100379.31;;;25.79;28.94
37710;BME280;60223;34.854;-92.408;2023-10-19T08:37:22;100384.72;;;25.92;29.02
37710;BME280;60223;34.854;-92.408;2023-10-19T08:39:48;100381.99;;;25.63;28.98
37710;BME280;60223;34.854;-92.408;2023-10-19T08:42:13;100377.60;;;25.66;28.90
37710;BME280;60223;34.854;-92.408;2023-10-19T08:44:48;100374.31;;;25.70;28.86
37710;BME280;60223;34.854;-92.408;2023-10-19T08:47:04;100372.20;;;25.74;28.85
37710;BME280;60223;34.854;-92.408;2023-10-19T08:49:30;100372.62;;;25.62;28.96
37710;BME280;60223;34.854;-92.408;2023-10-19T08:51:58;100365.31;;;25.65;28.86
37710;BME280;60223;34.854;-92.408;2023-10-19T08:54:21;100363.51;;;26.07;28.80
37710;BME280;60223;34.854;-92.408;2023-10-19T08:56:52;100359.32;;;25.95;28.52
37710;BME280;60223;34.854;-92.408;2023-10-19T08:59:14;100350.88;;;25.40;28.86
37710;BME280;60223;34.854;-92.408;2023-10-19T09:01:38;100348.13;;;25.91;28.86
37710;BME280;60223;34.854;-92.408;2023-10-19T09:04:03;100348.67;;;26.03;28.65
37710;BME280;60223;34.854;-92.408;2023-10-19T09:06:29;100344.95;;;25.81;28.91
37710;BME280;60223;34.854;-92.408;2023-10-19T09:09:04;100344.91;;;25.46;29.04
37710;BME280;60223;34.854;-92.408;2023-10-19T09:11:21;100340.88;;;25.56;28.91
37710;BME280;60223;34.854;-92.408;2023-10-19T09:13:49;100342.67;;;25.95;28.45
37710;BME280;60223;34.854;-92.408;2023-10-19T09:16:13;100341.23;;;26.07;28.57
37710;BME280;60223;34.854;-92.408;2023-10-19T09:18:40;100339.42;;;25.89;28.76
37710;BME280;60223;34.854;-92.408;2023-10-19T09:21:02;100335.92;;;25.75;28.83
37710;BME280;60223;34.854;-92.408;2023-10-19T09:23:29;100340.40;;;26.32;28.22
37710;BME280;60223;34.854;-92.408;2023-10-19T09:25:56;100341.09;;;26.27;28.54
37710;BME280;60223;34.854;-92.408;2023-10-19T09:28:20;100341.98;;;26.07;28.51
37710;BME280;60223;34.854;-92.408;2023-10-19T09:30:48;100341.37;;;25.55;28.86
37710;BME280;60223;34.854;-92.408;2023-10-19T09:33:14;100339.63;;;26.10;28.40
37710;BME280;60223;34.854;-92.408;2023-10-19T09:35:37;100334.22;;;26.63;28.14
37710;BME280;60223;34.854;-92.408;2023-10-19T09:38:03;100335.30;;;25.61;28.90
37710;BME280;60223;34.854;-92.408;2023-10-19T09:40:37;100337.81;;;25.85;28.73
37710;BME280;60223;34.854;-92.408;2023-10-19T09:42:55;100340.22;;;25.94;28.85
37710;BME280;60223;34.854;-92.408;2023-10-19T09:45:22;100343.57;;;26.47;28.22
37710;BME280;60223;34.854;-92.408;2023-10-19T09:47:49;100341.01;;;25.69;28.46
37710;BME280;60223;34.854;-92.408;2023-10-19T09:50:12;100339.83;;;26.13;28.32
37710;BME280;60223;34.854;-92.408;2023-10-19T09:52:37;100344.18;;;26.40;28.19
37710;BME280;60223;34.854;-92.408;2023-10-19T09:55:06;100341.99;;;26.84;28.05
37710;BME280;60223;34.854;-92.408;2023-10-19T09:57:36;100341.71;;;26.26;28.14
37710;BME280;60223;34.854;-92.408;2023-10-19T10:00:00;100340.18;;;26.33;28.09
37710;BME280;60223;34.854;-92.408;2023-10-19T10:02:19;100339.43;;;26.50;28.13
37710;BME280;60223;34.854;-92.408;2023-10-19T10:04:45;100342.03;;;26.47;27.96
37710;BME280;60223;34.854;-92.408;2023-10-19T10:07:11;100340.33;;;25.99;28.36
37710;BME280;60223;34.854;-92.408;2023-10-19T10:09:38;100337.81;;;26.31;28.04
37710;BME280;60223;34.854;-92.408;2023-10-19T10:12:18;100338.58;;;26.03;28.33
37710;BME280;60223;34.854;-92.408;2023-10-19T10:14:38;100339.76;;;25.55;28.78
37710;BME280;60223;34.854;-92.408;2023-10-19T10:17:04;100340.40;;;26.51;28.03
37710;BME280;60223;34.854;-92.408;2023-10-19T10:19:24;100338.64;;;25.71;28.98
37710;BME280;60223;34.854;-92.408;2023-10-19T10:24:19;100340.84;;;26.11;27.99
37710;BME280;60223;34.854;-92.408;2023-10-19T10:29:13;100342.24;;;26.42;28.06
37710;BME280;60223;34.854;-92.408;2023-10-19T10:31:29;100345.34;;;26.44;28.03
37710;BME280;60223;34.854;-92.408;2023-10-19T10:33:54;100342.97;;;26.07;28.27
37710;BME280;60223;34.854;-92.408;2023-10-19T10:36:25;100342.04;;;25.81;28.51
37710;BME280;60223;34.854;-92.408;2023-10-19T10:38:45;100346.44;;;26.62;27.85
37710;BME280;60223;34.854;-92.408;2023-10-19T10:41:10;100342.01;;;25.76;28.39
37710;BME280;60223;34.854;-92.408;2023-10-19T10:43:47;100343.49;;;26.72;27.59
37710;BME280;60223;34.854;-92.408;2023-10-19T10:46:08;100342.92;;;26.45;27.99
37710;BME280;60223;34.854;-92.408;2023-10-19T10:48:27;100342.19;;;26.26;27.86
37710;BME280;60223;34.854;-92.408;2023-10-19T10:50:52;100344.94;;;26.09;28.05
37710;BME280;60223;34.854;-92.408;2023-10-19T10:53:18;100341.13;;;26.54;27.77
37710;BME280;60223;34.854;-92.408;2023-10-19T11:10:37;100336.24;;;26.38;27.84
37710;BME280;60223;34.854;-92.408;2023-10-19T11:12:49;100331.86;;;26.86;27.56
37710;BME280;60223;34.854;-92.408;2023-10-19T11:15:09;100330.98;;;25.86;28.22
37710;BME280;60223;34.854;-92.408;2023-10-19T11:17:41;100332.05;;;26.50;27.69
37710;BME280;60223;34.854;-92.408;2023-10-19T11:20:01;100329.73;;;26.61;27.75
37710;BME280;60223;34.854;-92.408;2023-10-19T11:22:26;100324.70;;;26.63;27.56
37710;BME280;60223;34.854;-92.408;2023-10-19T11:24:52;100324.37;;;26.44;27.71
37710;BME280;60223;34.854;-92.408;2023-10-19T11:32:08;100312.07;;;26.64;27.46
37710;BME280;60223;34.854;-92.408;2023-10-19T11:34:34;100318.94;;;26.75;27.41
37710;BME280;60223;34.854;-92.408;2023-10-19T11:37:00;100326.62;;;26.90;27.20
37710;BME280;60223;34.854;-92.408;2023-10-19T11:39:26;100327.58;;;26.92;27.23
37710;BME280;60223;34.854;-92.408;2023-10-19T11:41:51;100323.24;;;26.65;27.69
37710;BME280;60223;34.854;-92.408;2023-10-19T11:44:18;100322.37;;;26.75;27.37
37710;BME280;60223;34.854;-92.408;2023-10-19T11:46:47;100324.12;;;26.59;27.48
37710;BME280;60223;34.854;-92.408;2023-10-19T11:49:09;100325.83;;;26.50;27.55
37710;BME280;60223;34.854;-92.408;2023-10-19T11:51:32;100325.54;;;26.72;27.34
37710;BME280;60223;34.854;-92.408;2023-10-19T11:54:00;100320.40;;;26.84;27.22
37710;BME280;60223;34.854;-92.408;2023-10-19T11:56:24;100320.49;;;26.56;27.50
37710;BME280;60223;34.854;-92.408;2023-10-19T12:15:50;100333.51;;;26.56;27.62
37710;BME280;60223;34.854;-92.408;2023-10-19T12:18:15;100335.66;;;27.00;27.25
37710;BME280;60223;34.854;-92.408;2023-10-19T12:20:40;100341.43;;;26.93;27.27
37710;BME280;60223;34.854;-92.408;2023-10-19T12:23:07;100334.34;;;25.28;28.44
37710;BME280;60223;34.854;-92.408;2023-10-19T12:25:33;100346.48;;;25.72;28.14
37710;BME280;60223;34.854;-92.408;2023-10-19T12:28:00;100348.19;;;26.21;27.71
37710;BME280;60223;34.854;-92.408;2023-10-19T12:30:24;100348.06;;;26.15;27.83
37710;BME280;60223;34.854;-92.408;2023-10-19T12:32:50;100351.48;;;26.50;27.60
37710;BME280;60223;34.854;-92.408;2023-10-19T12:35:16;100351.63;;;26.50;27.53
37710;BME280;60223;34.854;-92.408;2023-10-19T12:37:42;100351.85;;;26.71;27.34
37710;BME280;60223;34.854;-92.408;2023-10-19T12:40:07;100352.81;;;26.17;27.63
37710;BME280;60223;34.854;-92.408;2023-10-19T12:42:32;100356.40;;;26.62;27.43
37710;BME280;60223;34.854;-92.408;2023-10-19T12:44:58;100357.05;;;26.65;27.42
37710;BME280;60223;34.854;-92.408;2023-10-19T12:47:22;100355.43;;;26.05;27.91
37710;BME280;60223;34.854;-92.408;2023-10-19T12:49:49;100356.10;;;26.82;27.30
37710;BME280;60223;34.854;-92.408;2023-10-19T12:52:16;100359.01;;;26.53;27.32
37710;BME280;60223;34.854;-92.408;2023-10-19T12:54:42;100360.95;;;26.57;28.16
37710;BME280;60223;34.854;-92.408;2023-10-19T12:57:08;100359.55;;;26.31;28.08
37710;BME280;60223;34.854;-92.408;2023-10-19T12:59:32;100359.63;;;26.18;27.72
37710;BME280;60223;34.854;-92.408;2023-10-19T13:01:59;100361.41;;;26.50;27.59
37710;BME280;60223;34.854;-92.408;2023-10-19T13:04:43;100366.06;;;26.80;27.45
37710;BME280;60223;34.854;-92.408;2023-10-19T13:06:53;100368.74;;;26.55;27.41
37710;BME280;60223;34.854;-92.408;2023-10-19T13:09:23;100372.09;;;26.19;27.69
37710;BME280;60223;34.854;-92.408;2023-10-19T13:11:40;100373.39;;;26.71;27.46
37710;BME280;60223;34.854;-92.408;2023-10-19T13:14:07;100374.44;;;26.49;27.40
37710;BME280;60223;34.854;-92.408;2023-10-19T13:16:33;100377.57;;;26.37;27.47
37710;BME280;60223;34.854;-92.408;2023-10-19T13:19:05;100387.92;;;26.62;27.45
37710;BME280;60223;34.854;-92.408;2023-10-19T13:21:23;100393.81;;;26.71;27.34
37710;BME280;60223;34.854;-92.408;2023-10-19T13:23:54;100400.67;;;26.55;27.45